Rowell, Arkansas
Current Conditions -  °F | °C
As of 5:53 PM on Wednesday 26 Nov 2014 (Local Time) from KPBF Reporting Station
Clear Clear  
Wind Chill: 53°   Ceiling: Unl
Heat Index: 53°   Visibility: 9mi
Dew Point: 29°   Wind: 10mph
Humidity: 40%   Direction: 300°WNW
Pressure: 30.15"   Gusts: NA
Location:  33.947°N, 92.1633°W
Report Text: KPBF 262353Z AUTO 30009KT 9SM CLR 12/M02 A3015 RMK AO2 SLP209 60000 T01171017 10150 20111 53031
Loading
Personal Weather Stations






























Interactive Weather Map New forecast layout! Learn more

10-Day Weather Forecast

Advertisements
Track Severe Weather on mobile